createdAt,value
2023-02-25T00:01:41.716Z,99.90
2023-02-25T00:04:11.566Z,99.90
2023-02-25T00:09:11.267Z,99.90
2023-02-25T00:11:38.583Z,99.90
2023-02-25T00:14:05.929Z,99.90
2023-02-25T00:16:33.311Z,99.90
2023-02-25T00:19:00.353Z,99.90
2023-02-25T00:24:04.489Z,99.90
2023-02-25T00:26:41.544Z,99.90
2023-02-25T00:29:08.553Z,99.90
2023-02-25T00:31:36.010Z,99.90
2023-02-25T00:34:03.050Z,99.90
2023-02-25T00:36:30.480Z,99.90
2023-02-25T00:38:58.160Z,99.90
2023-02-25T00:41:28.257Z,99.90
2023-02-25T00:44:02.066Z,99.90
2023-02-25T00:46:30.940Z,99.90
2023-02-25T00:48:58.999Z,99.90
2023-02-25T00:51:29.859Z,99.90
2023-02-25T00:53:57.255Z,99.90
2023-02-25T00:56:26.629Z,99.90
2023-02-25T00:58:53.836Z,99.90
2023-02-25T01:01:33.619Z,99.90
2023-02-25T01:04:01.073Z,99.90
2023-02-25T01:06:29.860Z,99.90
2023-02-25T01:08:58.647Z,99.90
2023-02-25T01:11:32.838Z,99.90
2023-02-25T01:14:03.157Z,99.90
2023-02-25T01:16:32.705Z,99.90
2023-02-25T01:19:02.639Z,99.90
2023-02-25T01:21:34.139Z,99.90
2023-02-25T01:24:04.408Z,99.90
2023-02-25T01:26:34.230Z,99.90
2023-02-25T01:29:01.486Z,99.90
2023-02-25T01:31:32.001Z,99.90
2023-02-25T01:34:00.190Z,99.90
2023-02-25T01:36:29.964Z,99.90
2023-02-25T01:38:58.822Z,99.90
2023-02-25T01:41:28.186Z,99.90
2023-02-25T01:44:18.503Z,99.90
2023-02-25T01:46:47.710Z,99.90
2023-02-25T01:49:36.156Z,99.90
2023-02-25T01:54:33.616Z,99.90
2023-02-25T01:57:01.810Z,99.90
2023-02-25T01:59:30.578Z,99.90
2023-02-25T02:01:58.651Z,99.90
2023-02-25T02:04:28.626Z,99.90
2023-02-25T02:06:56.546Z,99.90
2023-02-25T02:09:27.463Z,99.90
2023-02-25T02:12:00.111Z,99.90
2023-02-25T02:14:33.020Z,99.90
2023-02-25T02:17:38.286Z,99.90
2023-02-25T02:20:14.473Z,99.90
2023-02-25T02:23:03.992Z,99.90
2023-02-25T02:25:51.601Z,99.90
2023-02-25T02:28:38.459Z,99.90
2023-02-25T02:31:34.128Z,99.90
2023-02-25T02:34:30.365Z,99.90
2023-02-25T02:37:09.020Z,99.90
2023-02-25T02:40:15.267Z,99.90
2023-02-25T02:43:17.656Z,99.90
2023-02-25T02:45:56.242Z,99.90
2023-02-25T02:48:32.211Z,99.90
2023-02-25T02:51:02.980Z,99.90
2023-02-25T02:53:41.026Z,99.90
2023-02-25T02:56:12.334Z,99.90
2023-02-25T02:58:44.386Z,99.90
2023-02-25T03:01:18.353Z,99.90
2023-02-25T03:03:59.812Z,99.90
2023-02-25T03:06:33.327Z,99.90
2023-02-25T03:09:10.536Z,99.90
2023-02-25T03:17:08.780Z,99.90
2023-02-25T03:19:42.119Z,99.90
2023-02-25T03:22:14.165Z,99.90
2023-02-25T03:24:55.503Z,99.90
2023-02-25T03:27:39.644Z,99.90
2023-02-25T03:30:15.340Z,99.90
2023-02-25T03:32:47.993Z,99.90
2023-02-25T03:35:18.868Z,99.90
2023-02-25T03:37:50.246Z,99.90
2023-02-25T03:40:19.609Z,99.90
2023-02-25T03:42:54.554Z,99.90
2023-02-25T03:45:22.931Z,99.90
2023-02-25T03:47:51.061Z,99.90
2023-02-25T03:50:30.960Z,99.90
2023-02-25T03:53:03.829Z,99.90
2023-02-25T03:55:48.508Z,99.90
2023-02-25T03:58:16.060Z,99.90
2023-02-25T04:00:46.083Z,99.90
2023-02-25T04:03:13.530Z,99.90
2023-02-25T04:08:15.702Z,99.90
2023-02-25T04:10:44.235Z,99.90
2023-02-25T04:13:14.998Z,99.90
2023-02-25T04:18:10.113Z,99.90
2023-02-25T04:20:37.216Z,99.90
2023-02-25T04:23:04.742Z,99.90
2023-02-25T04:25:31.739Z,99.90
2023-02-25T04:27:59.193Z,99.90
2023-02-25T04:30:26.563Z,99.90
2023-02-25T04:32:54.039Z,99.90
2023-02-25T04:35:21.020Z,99.90
2023-02-25T04:37:48.280Z,99.90
2023-02-25T04:40:19.067Z,99.90
2023-02-25T04:42:46.829Z,99.90
2023-02-25T04:45:15.266Z,99.90
2023-02-25T04:47:45.466Z,99.90
2023-02-25T04:50:13.285Z,99.90
2023-02-25T04:52:40.693Z,99.90
2023-02-25T04:55:09.836Z,99.90
2023-02-25T04:57:42.298Z,99.90
2023-02-25T05:00:15.580Z,99.90
2023-02-25T05:02:43.478Z,99.90
2023-02-25T05:05:11.227Z,99.90
2023-02-25T05:07:39.050Z,99.90
2023-02-25T05:10:07.897Z,99.90
2023-02-25T05:12:35.193Z,99.90
2023-02-25T05:15:05.251Z,99.90
2023-02-25T05:17:33.308Z,99.90
2023-02-25T05:24:55.753Z,99.90
2023-02-25T05:27:23.053Z,99.90
2023-02-25T05:29:51.533Z,99.90
2023-02-25T05:32:18.955Z,99.90
2023-02-25T05:34:46.050Z,99.90
2023-02-25T05:37:13.543Z,99.90
2023-02-25T05:39:40.532Z,99.90
2023-02-25T05:42:08.011Z,99.90
2023-02-25T05:51:58.165Z,99.90
2023-02-25T05:54:25.558Z,99.90
2023-02-25T05:56:53.365Z,99.90
2023-02-25T05:59:20.466Z,99.90
2023-02-25T06:01:48.437Z,99.90
2023-02-25T06:04:15.858Z,99.90
2023-02-25T06:06:43.243Z,99.90
2023-02-25T06:09:10.353Z,99.90
2023-02-25T06:11:37.771Z,99.90
2023-02-25T06:14:04.826Z,99.90
2023-02-25T06:16:32.842Z,99.90
2023-02-25T06:19:01.408Z,99.90
2023-02-25T06:21:29.752Z,99.90
2023-02-25T06:23:56.787Z,99.90
2023-02-25T06:26:24.440Z,99.90
2023-02-25T06:28:51.895Z,99.90
2023-02-25T06:31:20.637Z,99.90
2023-02-25T06:33:48.690Z,99.90
2023-02-25T06:36:16.665Z,99.90
2023-02-25T06:38:46.313Z,99.90
2023-02-25T06:41:16.564Z,99.90
2023-02-25T06:43:44.655Z,99.90
2023-02-25T06:46:14.561Z,99.90
2023-02-25T06:48:42.240Z,99.90
2023-02-25T06:51:11.362Z,99.90
2023-02-25T06:53:42.907Z,99.90
2023-02-25T06:56:13.034Z,99.90
2023-02-25T07:01:14.379Z,99.90
2023-02-25T07:03:44.702Z,99.90
2023-02-25T07:06:14.009Z,99.90
2023-02-25T07:08:41.327Z,99.90
2023-02-25T07:11:14.942Z,99.90
2023-02-25T07:13:43.391Z,99.90
2023-02-25T07:16:15.155Z,99.90
2023-02-25T07:18:42.876Z,99.90
2023-02-25T07:21:12.436Z,99.90
2023-02-25T07:26:09.583Z,99.90
2023-02-25T07:28:37.355Z,99.90
2023-02-25T07:31:13.396Z,99.90
2023-02-25T07:33:42.039Z,99.90
2023-02-25T07:36:11.097Z,99.90
2023-02-25T07:38:38.872Z,99.90
2023-02-25T07:41:11.951Z,99.90
2023-02-25T07:43:40.074Z,99.90
2023-02-25T07:46:09.350Z,99.90
2023-02-25T07:48:39.972Z,99.90
2023-02-25T07:51:12.754Z,99.90
2023-02-25T07:53:42.960Z,99.90
2023-02-25T07:56:11.281Z,99.90
2023-02-25T07:58:38.715Z,99.90
2023-02-25T08:01:11.138Z,99.90
2023-02-25T08:03:39.069Z,99.90
2023-02-25T08:06:08.284Z,99.90
2023-02-25T08:08:36.277Z,99.90
2023-02-25T08:11:08.445Z,99.90
2023-02-25T08:13:36.221Z,99.90
2023-02-25T08:16:09.034Z,99.90
2023-02-25T08:18:36.570Z,99.90
2023-02-25T08:21:04.607Z,99.90
2023-02-25T08:23:31.814Z,99.90
2023-02-25T08:25:59.635Z,99.90
2023-02-25T08:28:27.789Z,99.90
2023-02-25T08:33:24.016Z,99.90
2023-02-25T08:35:51.539Z,99.90
2023-02-25T08:38:19.248Z,99.90
2023-02-25T08:40:46.655Z,99.90
2023-02-25T08:43:13.771Z,99.90
2023-02-25T08:45:41.914Z,99.90
2023-02-25T08:48:09.898Z,99.90
2023-02-25T08:50:37.298Z,99.90
2023-02-25T08:53:04.329Z,99.90
2023-02-25T08:55:35.352Z,99.10
2023-02-25T08:58:04.697Z,96.80
2023-02-25T09:00:32.591Z,93.00
2023-02-25T09:02:59.786Z,93.80
2023-02-25T09:05:27.142Z,90.90
2023-02-25T09:07:55.406Z,78.60
2023-02-25T09:10:23.893Z,85.50
2023-02-25T09:12:51.009Z,78.40
2023-02-25T09:15:18.446Z,81.00
2023-02-25T09:17:47.811Z,73.20
2023-02-25T09:22:45.187Z,70.30
2023-02-25T09:25:13.887Z,62.00
2023-02-25T09:27:43.788Z,70.30
2023-02-25T09:30:11.484Z,43.50
2023-02-25T09:32:38.599Z,43.50
2023-02-25T09:35:07.544Z,63.70
2023-02-25T09:37:35.971Z,58.60
2023-02-25T09:40:08.373Z,41.70
2023-02-25T09:43:16.593Z,71.80
2023-02-25T09:45:47.621Z,56.30
2023-02-25T09:48:21.213Z,73.40
2023-02-25T09:50:57.006Z,79.30
2023-02-25T09:53:40.151Z,65.00
2023-02-25T09:56:12.138Z,33.20
2023-02-25T09:58:42.235Z,9.60
2023-02-25T10:01:24.905Z,1.00
2023-02-25T10:04:02.503Z,1.00
2023-02-25T10:06:36.178Z,99.90
2023-02-25T10:09:31.432Z,1.00
2023-02-25T10:12:13.266Z,99.90
2023-02-25T10:14:52.221Z,99.90
2023-02-25T10:17:44.356Z,99.90
2023-02-25T10:20:50.060Z,99.90
2023-02-25T10:23:54.869Z,99.90
2023-02-25T10:26:29.898Z,99.90
2023-02-25T10:29:04.410Z,99.90
2023-02-25T10:31:35.108Z,99.90
2023-02-25T10:34:26.069Z,99.90
2023-02-25T10:36:59.007Z,1.00
2023-02-25T10:39:28.602Z,99.90
2023-02-25T10:41:58.703Z,1.00
2023-02-25T10:44:26.093Z,99.90
2023-02-25T10:47:04.103Z,1.00
2023-02-25T10:49:38.282Z,1.00
2023-02-25T10:52:17.985Z,1.00
2023-02-25T10:54:51.136Z,1.00
2023-02-25T10:57:42.034Z,1.00
2023-02-25T11:00:31.266Z,99.90
2023-02-25T11:03:01.637Z,99.90
2023-02-25T11:05:37.683Z,1.00
2023-02-25T11:08:11.021Z,1.00
2023-02-25T11:10:39.851Z,99.90
2023-02-25T11:13:28.806Z,99.90
2023-02-25T11:15:58.114Z,99.90
2023-02-25T11:18:32.183Z,99.90
2023-02-25T11:21:08.850Z,99.90
2023-02-25T11:23:46.641Z,99.90
2023-02-25T11:26:37.139Z,1.00
2023-02-25T11:29:21.005Z,1.00
2023-02-25T11:31:52.232Z,1.00
2023-02-25T11:34:28.259Z,1.00
2023-02-25T11:36:55.685Z,1.00
2023-02-25T11:39:25.364Z,99.90
2023-02-25T11:41:55.579Z,34.00
2023-02-25T11:44:43.350Z,99.90
2023-02-25T11:47:14.297Z,99.90
2023-02-25T11:49:42.661Z,99.90
2023-02-25T11:52:13.345Z,1.00
2023-02-25T11:55:04.650Z,12.30
2023-02-25T11:57:47.434Z,12.20
2023-02-25T12:00:36.037Z,9.40
2023-02-25T12:03:40.555Z,1.00
2023-02-25T12:06:13.669Z,1.00
2023-02-25T12:08:57.027Z,99.90
2023-02-25T12:11:48.430Z,1.00
2023-02-25T12:14:34.579Z,1.00
2023-02-25T12:17:28.325Z,1.00
2023-02-25T12:20:30.704Z,1.00
2023-02-25T12:23:16.342Z,1.00
2023-02-25T12:26:21.750Z,1.00
2023-02-25T12:28:55.322Z,1.00
2023-02-25T12:31:31.575Z,99.90
2023-02-25T12:34:11.362Z,99.90
2023-02-25T12:36:41.408Z,99.90
2023-02-25T12:39:29.997Z,99.90
2023-02-25T12:42:06.244Z,1.00
2023-02-25T12:44:51.439Z,1.00
2023-02-25T12:47:25.756Z,13.20
2023-02-25T12:50:15.751Z,1.00
2023-02-25T12:53:01.181Z,1.00
2023-02-25T12:55:46.597Z,99.90
2023-02-25T12:58:40.185Z,1.00
2023-02-25T13:01:29.994Z,99.90
2023-02-25T13:04:22.721Z,1.00
2023-02-25T13:07:22.736Z,1.00
2023-02-25T13:10:05.018Z,1.00
2023-02-25T13:12:53.966Z,1.00
2023-02-25T13:15:30.661Z,1.00
2023-02-25T13:18:23.872Z,1.00
2023-02-25T13:21:25.800Z,99.90
2023-02-25T13:24:20.071Z,1.00
2023-02-25T13:27:11.244Z,1.00
2023-02-25T13:30:06.054Z,11.00
2023-02-25T13:32:58.329Z,25.10
2023-02-25T13:35:50.018Z,56.80
2023-02-25T13:38:39.017Z,92.60
2023-02-25T13:41:31.785Z,91.10
2023-02-25T13:43:59.052Z,94.30
2023-02-25T13:47:02.966Z,63.30
2023-02-25T13:49:51.035Z,74.30
2023-02-25T13:52:30.758Z,85.10
2023-02-25T13:55:32.483Z,83.20
2023-02-25T13:58:19.273Z,76.90
2023-02-25T14:01:19.151Z,89.40
2023-02-25T14:04:22.457Z,82.90
2023-02-25T14:07:32.841Z,68.50
2023-02-25T14:10:31.243Z,54.20
2023-02-25T14:13:12.879Z,23.10
2023-02-25T14:16:01.314Z,40.60
2023-02-25T14:18:45.382Z,55.10
2023-02-25T14:21:43.317Z,33.20
2023-02-25T14:24:23.509Z,56.30
2023-02-25T14:27:04.813Z,49.70
2023-02-25T14:29:43.136Z,70.50
2023-02-25T14:32:37.037Z,64.30
2023-02-25T14:35:18.034Z,75.90
2023-02-25T14:38:09.828Z,69.80
2023-02-25T14:41:01.119Z,38.80
2023-02-25T14:43:32.418Z,39.50
2023-02-25T14:46:29.771Z,54.90
2023-02-25T14:49:11.673Z,57.10
2023-02-25T14:52:03.904Z,46.60
2023-02-25T14:55:05.982Z,60.20
2023-02-25T14:57:51.516Z,56.40
2023-02-25T15:00:48.606Z,68.70
2023-02-25T15:03:22.417Z,80.40
2023-02-25T15:05:55.388Z,92.80
2023-02-25T15:08:34.366Z,92.00
2023-02-25T15:11:19.878Z,99.30
2023-02-25T15:14:21.694Z,99.90
2023-02-25T15:17:16.139Z,99.90
2023-02-25T15:19:49.762Z,99.90
2023-02-25T15:22:26.273Z,99.90
2023-02-25T15:25:19.996Z,99.90
2023-02-25T15:27:52.116Z,99.90
2023-02-25T15:30:22.757Z,99.90
2023-02-25T15:33:02.220Z,99.90
2023-02-25T15:35:35.457Z,99.90
2023-02-25T15:38:10.040Z,99.90
2023-02-25T15:40:51.108Z,99.90
2023-02-25T15:43:18.138Z,99.90
2023-02-25T15:45:51.421Z,99.90
2023-02-25T15:48:21.351Z,99.90
2023-02-25T15:50:48.705Z,99.90
2023-02-25T15:53:21.870Z,99.90
2023-02-25T15:56:03.495Z,99.90
2023-02-25T15:58:30.558Z,99.90
2023-02-25T16:01:00.005Z,99.90
2023-02-25T16:03:35.948Z,99.90
2023-02-25T16:06:20.069Z,99.90
2023-02-25T16:08:53.553Z,99.90
2023-02-25T16:11:35.749Z,99.90
2023-02-25T16:14:25.216Z,99.90
2023-02-25T16:16:57.541Z,99.90
2023-02-25T16:19:33.473Z,99.90
2023-02-25T16:22:19.284Z,99.90
2023-02-25T16:24:53.864Z,99.90
2023-02-25T16:27:52.943Z,99.90
2023-02-25T16:30:36.007Z,99.90
2023-02-25T16:33:18.794Z,99.90
2023-02-25T16:35:55.420Z,99.90
2023-02-25T16:38:39.490Z,99.90
2023-02-25T16:41:06.729Z,99.90
2023-02-25T16:43:38.084Z,99.90
2023-02-25T16:46:12.869Z,99.90
2023-02-25T16:48:45.854Z,99.90
2023-02-25T16:51:18.107Z,99.90
2023-02-25T16:53:46.920Z,99.90
2023-02-25T16:56:19.978Z,99.90
2023-02-25T16:59:09.117Z,99.90
2023-02-25T17:01:38.052Z,99.90
2023-02-25T17:04:17.241Z,99.90
2023-02-25T17:09:26.470Z,99.90
2023-02-25T17:11:55.801Z,99.90
2023-02-25T17:14:25.023Z,99.90
2023-02-25T17:16:56.009Z,99.90
2023-02-25T17:19:24.476Z,99.90
2023-02-25T17:21:56.203Z,99.90
2023-02-25T17:24:29.492Z,99.90
2023-02-25T17:26:57.206Z,99.90
2023-02-25T17:29:35.840Z,99.90
2023-02-25T17:32:18.375Z,99.90
2023-02-25T17:34:47.239Z,99.90
2023-02-25T17:37:16.177Z,99.90
2023-02-25T17:39:45.018Z,99.90
2023-02-25T17:42:34.632Z,99.90
2023-02-25T17:45:05.043Z,99.90
2023-02-25T17:47:37.539Z,99.90
2023-02-25T17:50:34.221Z,99.90
2023-02-25T17:53:01.185Z,99.90
2023-02-25T17:55:34.079Z,99.90
2023-02-25T17:58:03.181Z,99.90
2023-02-25T18:00:35.922Z,99.90
2023-02-25T18:03:16.994Z,99.90
2023-02-25T18:06:02.694Z,99.90
2023-02-25T18:08:30.490Z,99.90
2023-02-25T18:11:35.537Z,99.90
2023-02-25T18:14:20.963Z,99.90
2023-02-25T18:16:48.408Z,99.90
2023-02-25T18:19:24.547Z,99.90
2023-02-25T18:21:52.843Z,99.90
2023-02-25T18:24:34.834Z,99.90
2023-02-25T18:27:26.101Z,99.90
2023-02-25T18:29:57.818Z,99.90
2023-02-25T18:32:31.531Z,99.90
2023-02-25T18:34:58.636Z,99.90
2023-02-25T18:37:27.801Z,99.90
2023-02-25T18:39:54.808Z,99.90
2023-02-25T18:44:56.538Z,99.90
2023-02-25T18:47:23.962Z,99.90
2023-02-25T18:49:51.117Z,99.90
2023-02-25T18:52:25.036Z,99.90
2023-02-25T18:54:52.488Z,99.90
2023-02-25T18:57:25.238Z,99.90
2023-02-25T18:59:53.071Z,99.90
2023-02-25T19:02:32.729Z,99.90
2023-02-25T19:05:03.919Z,99.90
2023-02-25T19:07:34.335Z,99.90
2023-02-25T19:10:01.919Z,99.90
2023-02-25T19:12:31.520Z,99.90
2023-02-25T19:15:01.430Z,99.90
2023-02-25T19:17:29.874Z,99.90
2023-02-25T19:19:57.700Z,99.90
2023-02-25T19:22:25.280Z,99.90
2023-02-25T19:24:52.297Z,99.90
2023-02-25T19:27:31.823Z,99.90
2023-02-25T19:29:59.447Z,99.90
2023-02-25T19:32:28.888Z,99.90
2023-02-25T19:37:23.927Z,99.90
2023-02-25T19:39:51.109Z,99.90
2023-02-25T19:42:18.802Z,99.90
2023-02-25T19:44:45.844Z,99.90
2023-02-25T19:47:13.147Z,99.90
2023-02-25T19:49:40.205Z,99.90
2023-02-25T19:52:07.645Z,99.90
2023-02-25T19:54:34.688Z,99.90
2023-02-25T19:57:01.959Z,99.90
2023-02-25T19:59:30.629Z,99.90
2023-02-25T20:04:26.259Z,99.90
2023-02-25T20:06:58.888Z,99.90
2023-02-25T20:09:26.083Z,99.90
2023-02-25T20:16:52.571Z,99.90
2023-02-25T20:19:19.675Z,99.90
2023-02-25T20:21:47.261Z,99.90
2023-02-25T20:24:15.670Z,99.90
2023-02-25T20:26:45.789Z,99.90
2023-02-25T20:29:12.795Z,99.90
2023-02-25T20:31:40.543Z,99.90
2023-02-25T20:34:13.530Z,99.90
2023-02-25T20:37:14.635Z,99.90
2023-02-25T20:39:56.031Z,99.90
2023-02-25T20:42:27.600Z,99.90
2023-02-25T20:47:29.040Z,99.90
2023-02-25T20:49:58.197Z,99.90
2023-02-25T20:52:28.975Z,99.90
2023-02-25T20:57:26.843Z,99.90
2023-02-25T20:59:54.615Z,99.90
2023-02-25T21:02:22.281Z,99.90
2023-02-25T21:04:50.379Z,99.90
2023-02-25T21:07:18.179Z,99.90
2023-02-25T21:09:45.639Z,99.90
2023-02-25T21:12:13.201Z,99.90
2023-02-25T21:14:40.312Z,99.90
2023-02-25T21:17:13.725Z,99.90
2023-02-25T21:19:41.175Z,99.90
2023-02-25T21:22:08.898Z,99.90
2023-02-25T21:24:36.767Z,99.90
2023-02-25T21:27:04.318Z,99.90
2023-02-25T21:29:32.490Z,99.90
2023-02-25T21:31:59.884Z,99.90
2023-02-25T21:34:27.204Z,99.90
2023-02-25T21:36:58.332Z,99.90
2023-02-25T21:39:26.470Z,99.90
2023-02-25T21:41:54.079Z,99.90
2023-02-25T21:44:22.929Z,99.90
2023-02-25T21:46:50.317Z,99.90
2023-02-25T21:49:17.398Z,99.90
2023-02-25T21:51:44.997Z,99.90
2023-02-25T21:54:13.297Z,99.90
2023-02-25T21:56:41.143Z,99.90
2023-02-25T21:59:08.592Z,99.90
2023-02-25T22:01:39.006Z,99.90
2023-02-25T22:04:07.143Z,99.90
2023-02-25T22:06:34.639Z,99.90
2023-02-25T22:09:01.780Z,99.90
2023-02-25T22:11:32.778Z,99.90
2023-02-25T22:14:01.816Z,99.90
2023-02-25T22:18:57.282Z,99.90
2023-02-25T22:21:30.165Z,99.90
2023-02-25T22:23:59.633Z,99.90
2023-02-25T22:26:29.924Z,99.90
2023-02-25T22:28:59.491Z,99.90
2023-02-25T22:31:28.104Z,99.90
2023-02-25T22:33:56.560Z,99.90
2023-02-25T22:36:24.770Z,99.90
2023-02-25T22:38:52.736Z,99.90
2023-02-25T22:41:29.304Z,99.90
2023-02-25T22:43:58.311Z,99.90
2023-02-25T22:46:33.657Z,99.90
2023-02-25T22:49:00.685Z,99.90
2023-02-25T22:51:33.729Z,99.90
2023-02-25T22:54:00.898Z,99.90
2023-02-25T22:56:28.448Z,99.90
2023-02-25T22:58:55.990Z,99.90
2023-02-25T23:01:24.648Z,99.90
2023-02-25T23:03:53.122Z,99.90
2023-02-25T23:06:34.212Z,99.90
2023-02-25T23:09:09.308Z,99.90
2023-02-25T23:11:36.639Z,99.90
2023-02-25T23:14:04.092Z,99.90
2023-02-25T23:16:43.028Z,99.90
2023-02-25T23:19:14.023Z,99.90
2023-02-25T23:21:44.703Z,81.10
2023-02-25T23:24:19.624Z,99.50
2023-02-25T23:26:50.417Z,95.90
2023-02-25T23:31:47.984Z,87.40
2023-02-25T23:34:20.896Z,92.60
2023-02-25T23:39:16.396Z,80.70
2023-02-25T23:41:44.278Z,81.70
2023-02-25T23:44:13.150Z,67.20
2023-02-25T23:46:45.151Z,73.60
2023-02-25T23:49:14.623Z,73.40
2023-02-25T23:51:46.620Z,35.40
2023-02-25T23:54:16.755Z,41.90
2023-02-25T23:56:44.768Z,42.20
2023-02-25T23:59:12.494Z,27.60
